Time;durP1;ratioP1;P1;durP2;ratioP2;P2;SDS_P1;SDS_P2;PMS_P1;PMS_P2;Temp;Humidity;BMP_temperature;BMP_pressure;BME280_temperature;BME280_humidity;BME280_pressure;Samples;Min_cycle;Max_cycle;Signal;HPM_P1;HPM_P2
2022/08/07 00:00:44;;;;;;;5.53;2.88;;;17.30;99.90;;;;;;5060527;28;20223;-75
2022/08/07 00:03:34;;;;;;;5.78;2.97;;;17.20;99.90;;;;;;5061673;28;20299;-75
2022/08/07 00:06:24;;;;;;;5.28;2.90;;;17.10;99.90;;;;;;5057202;28;20252;-74
2022/08/07 00:09:21;;;;;;;8.75;3.33;;;17.10;99.90;;;;;;5063143;28;20225;-75
2022/08/07 00:12:23;;;;;;;4.60;2.50;;;17.20;99.90;;;;;;5061566;28;20624;-75
2022/08/07 00:15:14;;;;;;;6.38;2.67;;;17.20;99.90;;;;;;5059273;28;20219;-75
2022/08/07 00:18:04;;;;;;;5.95;3.10;;;17.20;99.90;;;;;;5052888;28;20227;-75
2022/08/07 00:20:55;;;;;;;6.00;2.45;;;17.30;99.90;;;;;;5057412;28;20592;-73
2022/08/07 00:23:45;;;;;;;8.43;2.33;;;17.20;99.90;;;;;;5064295;28;20223;-74
2022/08/07 00:26:35;;;;;;;7.72;2.28;;;17.30;99.90;;;;;;5057617;28;20238;-74
2022/08/07 00:29:44;;;;;;;6.13;2.10;;;17.00;99.90;;;;;;5057795;28;20293;-74
2022/08/07 00:32:35;;;;;;;9.35;2.00;;;17.10;99.90;;;;;;5061530;28;20220;-75
2022/08/07 00:35:24;;;;;;;4.15;2.50;;;16.90;99.90;;;;;;5059317;28;20232;-74
2022/08/07 00:38:13;;;;;;;4.75;2.53;;;16.90;99.90;;;;;;5050958;28;20327;-75
2022/08/07 00:41:03;;;;;;;4.85;2.15;;;17.00;99.90;;;;;;5048819;28;20220;-75
2022/08/07 00:43:57;;;;;;;6.13;2.22;;;16.90;99.90;;;;;;5049573;28;20862;-73
2022/08/07 00:46:50;;;;;;;4.55;2.03;;;17.10;99.90;;;;;;5060302;28;20227;-74
2022/08/07 00:49:41;;;;;;;5.60;2.17;;;17.00;99.90;;;;;;5045610;28;20232;-74
2022/08/07 00:52:50;;;;;;;4.72;2.30;;;17.20;99.90;;;;;;5048320;28;20692;-73
2022/08/07 00:55:40;;;;;;;3.42;2.30;;;16.90;99.90;;;;;;5039265;28;20317;-73
2022/08/07 00:58:49;;;;;;;4.10;2.20;;;17.00;99.90;;;;;;5045909;28;20232;-74
2022/08/07 01:01:38;;;;;;;6.20;2.40;;;16.80;99.90;;;;;;5060590;28;20239;-74
2022/08/07 01:04:31;;;;;;;4.72;2.22;;;16.80;99.90;;;;;;5054134;28;20228;-74
2022/08/07 01:07:29;;;;;;;8.63;2.40;;;16.80;99.90;;;;;;5061840;28;20607;-75
2022/08/07 01:10:19;;;;;;;5.75;2.10;;;16.70;99.90;;;;;;5060542;28;20964;-75
2022/08/07 01:13:08;;;;;;;6.20;2.33;;;16.70;99.90;;;;;;5059787;28;20590;-75
2022/08/07 01:16:05;;;;;;;3.45;1.92;;;16.60;99.90;;;;;;5058206;28;20242;-75
2022/08/07 01:18:55;;;;;;;5.55;2.38;;;16.50;99.90;;;;;;5056820;28;20224;-74
2022/08/07 01:21:47;;;;;;;3.78;2.03;;;16.50;99.90;;;;;;5055548;28;20242;-75
2022/08/07 01:24:37;;;;;;;4.30;2.25;;;16.50;99.90;;;;;;5061885;28;20676;-76
2022/08/07 01:27:27;;;;;;;3.58;2.15;;;16.60;99.90;;;;;;5047281;28;20231;-76
2022/08/07 01:30:21;;;;;;;6.20;2.17;;;16.50;99.90;;;;;;5042801;28;20779;-75
2022/08/07 01:33:17;;;;;;;4.28;2.08;;;16.50;99.90;;;;;;5044828;28;20243;-74
2022/08/07 01:36:08;;;;;;;10.30;1.92;;;16.60;99.90;;;;;;5047057;28;20361;-76
2022/08/07 01:39:02;;;;;;;6.85;2.03;;;16.60;99.90;;;;;;5045730;28;20220;-76
2022/08/07 01:42:00;;;;;;;7.50;2.03;;;16.60;99.90;;;;;;5062469;28;20719;-76
2022/08/07 01:45:10;;;;;;;5.95;2.10;;;16.60;99.90;;;;;;5046555;28;20220;-76
2022/08/07 01:48:09;;;;;;;4.00;1.90;;;16.50;99.90;;;;;;5045597;28;20277;-76
2022/08/07 01:51:13;;;;;;;4.13;1.85;;;16.30;99.90;;;;;;5048045;28;20228;-75
2022/08/07 01:54:27;;;;;;;4.53;2.03;;;16.40;99.90;;;;;;5056667;28;20628;-76
2022/08/07 01:57:31;;;;;;;6.63;2.42;;;16.50;99.90;;;;;;5041996;28;20311;-76
2022/08/07 02:00:41;;;;;;;4.88;2.15;;;16.60;99.90;;;;;;5046689;28;20231;-75
2022/08/07 02:03:41;;;;;;;4.97;2.00;;;16.60;99.90;;;;;;5059664;28;20242;-75
2022/08/07 02:06:39;;;;;;;4.75;2.10;;;16.60;99.90;;;;;;5059972;28;21437;-75
2022/08/07 02:09:30;;;;;;;7.05;1.95;;;16.50;99.90;;;;;;5055838;28;20220;-75
2022/08/07 02:12:45;;;;;;;6.32;2.03;;;16.60;99.90;;;;;;5057763;28;20318;-72
2022/08/07 02:15:44;;;;;;;7.22;2.10;;;16.60;99.90;;;;;;5042172;28;20230;-74
2022/08/07 02:18:36;;;;;;;5.35;1.60;;;16.70;99.90;;;;;;5044600;28;20567;-74
2022/08/07 02:21:36;;;;;;;5.75;2.20;;;16.60;99.90;;;;;;5042878;28;20311;-73
2022/08/07 02:24:48;;;;;;;6.70;2.03;;;16.60;99.90;;;;;;5053087;28;20216;-71
2022/08/07 02:27:39;;;;;;;4.97;2.00;;;16.60;99.90;;;;;;5060934;28;20653;-74
2022/08/07 02:30:29;;;;;;;5.05;2.10;;;16.60;99.90;;;;;;5045805;28;20224;-75
2022/08/07 02:33:20;;;;;;;4.15;1.88;;;16.60;99.90;;;;;;5041481;28;20221;-77
2022/08/07 02:36:10;;;;;;;6.13;1.85;;;16.60;99.90;;;;;;5044539;28;20220;-76
2022/08/07 02:39:19;;;;;;;4.03;1.90;;;16.50;99.90;;;;;;5060453;28;20334;-76
2022/08/07 02:42:33;;;;;;;3.00;1.90;;;16.60;99.90;;;;;;5064586;28;20263;-75
2022/08/07 02:45:24;;;;;;;4.00;2.28;;;16.70;99.90;;;;;;5062384;28;20218;-75
2022/08/07 02:48:33;;;;;;;4.03;2.03;;;16.50;99.90;;;;;;5053910;28;20314;-76
2022/08/07 02:51:26;;;;;;;5.85;2.10;;;16.60;99.90;;;;;;5056302;28;20806;-75
2022/08/07 02:54:39;;;;;;;5.15;2.05;;;16.70;99.90;;;;;;5060186;28;20262;-75
2022/08/07 02:57:35;;;;;;;3.80;1.88;;;16.70;99.90;;;;;;5041313;28;20242;-75
2022/08/07 03:00:28;;;;;;;4.28;2.25;;;16.70;99.90;;;;;;5057052;28;20235;-75
2022/08/07 03:03:19;;;;;;;6.45;2.20;;;16.70;99.90;;;;;;5058824;28;20432;-75
2022/08/07 03:06:15;;;;;;;5.00;2.38;;;16.70;99.90;;;;;;5054753;28;20246;-76
2022/08/07 03:09:22;;;;;;;4.80;2.17;;;16.60;99.90;;;;;;5043911;28;20235;-74
2022/08/07 03:12:33;;;;;;;5.80;2.45;;;16.50;99.90;;;;;;5055271;28;20239;-74
2022/08/07 03:15:29;;;;;;;4.70;2.25;;;16.80;99.90;;;;;;5059369;28;20224;-75
2022/08/07 03:18:38;;;;;;;4.07;2.20;;;16.80;99.90;;;;;;5057806;28;20222;-75
2022/08/07 03:21:31;;;;;;;3.58;2.25;;;16.70;99.90;;;;;;5040220;28;20346;-75
2022/08/07 03:24:22;;;;;;;4.40;2.25;;;16.70;99.90;;;;;;5054089;28;20333;-75
2022/08/07 03:27:18;;;;;;;6.03;2.97;;;16.60;99.90;;;;;;5057731;28;20216;-75
2022/08/07 03:30:22;;;;;;;4.82;2.58;;;16.60;99.90;;;;;;5042785;28;20228;-75
2022/08/07 03:33:14;;;;;;;4.05;2.05;;;16.50;99.90;;;;;;5059651;28;20316;-75
2022/08/07 03:36:09;;;;;;;4.55;2.35;;;16.60;99.90;;;;;;5060435;28;20216;-75
2022/08/07 03:39:03;;;;;;;7.95;2.75;;;16.70;99.90;;;;;;5063302;28;20635;-75
2022/08/07 03:41:54;;;;;;;8.57;2.42;;;16.70;99.90;;;;;;5061387;28;20355;-74
2022/08/07 03:44:49;;;;;;;5.07;2.00;;;16.50;99.90;;;;;;5046220;28;20228;-75
2022/08/07 03:47:47;;;;;;;4.50;2.10;;;16.60;99.90;;;;;;5066711;28;20224;-75
2022/08/07 03:50:42;;;;;;;6.00;2.33;;;16.60;99.90;;;;;;5064601;28;20224;-74
2022/08/07 03:53:54;;;;;;;4.90;2.17;;;16.60;99.90;;;;;;5044184;28;20693;-74
2022/08/07 03:57:06;;;;;;;5.75;2.40;;;16.70;99.90;;;;;;5063239;28;20220;-75
2022/08/07 03:59:56;;;;;;;4.28;2.20;;;16.70;99.90;;;;;;5044639;28;20220;-75
2022/08/07 04:03:05;;;;;;;5.60;2.20;;;16.80;99.90;;;;;;5061178;28;20273;-74
2022/08/07 04:05:59;;;;;;;3.58;2.03;;;16.90;99.90;;;;;;5061154;28;22075;-74
2022/08/07 04:08:52;;;;;;;6.63;2.40;;;16.90;99.90;;;;;;5049656;28;20239;-75
2022/08/07 04:11:44;;;;;;;4.97;2.33;;;16.90;99.90;;;;;;5047478;28;20592;-74
2022/08/07 04:14:54;;;;;;;4.63;2.20;;;16.90;99.90;;;;;;5048477;28;20228;-75
2022/08/07 04:17:44;;;;;;;6.97;2.30;;;17.00;99.90;;;;;;5044629;28;20228;-74
2022/08/07 04:20:55;;;;;;;5.95;2.30;;;17.00;99.90;;;;;;5059233;28;20268;-73
2022/08/07 04:23:47;;;;;;;9.63;2.33;;;17.20;99.90;;;;;;5047764;28;20227;-74
2022/08/07 04:26:56;;;;;;;4.05;2.30;;;17.20;99.90;;;;;;5061446;28;20247;-74
2022/08/07 04:29:45;;;;;;;3.95;2.10;;;17.20;99.90;;;;;;5059969;28;20574;-74
2022/08/07 04:32:49;;;;;;;3.95;1.88;;;17.30;99.90;;;;;;5061640;28;20224;-73
2022/08/07 04:35:48;;;;;;;7.03;2.28;;;17.20;99.90;;;;;;5046484;28;20241;-73
2022/08/07 04:38:44;;;;;;;9.93;3.00;;;17.40;99.90;;;;;;5064824;28;20220;-73
2022/08/07 04:41:34;;;;;;;4.40;2.40;;;17.50;99.90;;;;;;5046735;28;20338;-74
2022/08/07 04:44:24;;;;;;;6.10;2.65;;;17.50;99.90;;;;;;5043585;28;20370;-74
2022/08/07 04:47:34;;;;;;;3.80;1.40;;;17.60;99.90;;;;;;5056361;28;20795;-72
2022/08/07 04:50:49;;;;;;;3.70;1.20;;;17.60;99.90;;;;;;5044450;28;20315;-72
2022/08/07 04:53:48;;;;;;;4.57;1.88;;;17.60;99.90;;;;;;5063791;28;20272;-73
2022/08/07 04:57:00;;;;;;;3.50;1.30;;;17.80;99.90;;;;;;5047250;28;20307;-73
2022/08/07 05:00:11;;;;;;;3.78;1.10;;;;;;;;;;5046328;28;20239;-73
2022/08/07 05:03:20;;;;;;;3.30;1.02;;;17.80;99.90;;;;;;5047120;28;20226;-73
2022/08/07 05:06:36;;;;;;;3.40;1.20;;;17.90;99.90;;;;;;5045394;28;20216;-72
2022/08/07 05:09:40;;;;;;;4.95;1.48;;;17.90;99.90;;;;;;5047253;28;20221;-73
2022/08/07 05:12:40;;;;;;;4.63;1.38;;;17.90;99.90;;;;;;5059539;28;20222;-73
2022/08/07 05:15:43;;;;;;;3.83;1.33;;;18.10;99.90;;;;;;5045176;28;20220;-73
2022/08/07 05:18:35;;;;;;;6.63;1.35;;;18.10;99.90;;;;;;5059974;28;20217;-74
2022/08/07 05:21:28;;;;;;;4.35;1.15;;;18.20;99.90;;;;;;5055411;28;20235;-74
2022/08/07 05:24:40;;;;;;;2.97;1.27;;;18.20;99.90;;;;;;5058635;28;20220;-73
2022/08/07 05:27:33;;;;;;;2.88;1.20;;;18.20;99.90;;;;;;5058788;28;20522;-73
2022/08/07 05:30:43;;;;;;;2.63;1.20;;;18.30;99.90;;;;;;5058361;28;20288;-72
2022/08/07 05:33:37;;;;;;;4.32;1.38;;;18.50;99.90;;;;;;5061898;28;20229;-73
2022/08/07 05:36:29;;;;;;;5.70;1.20;;;18.50;99.90;;;;;;5059546;28;20323;-71
2022/08/07 05:39:24;;;;;;;4.72;1.23;;;18.80;99.90;;;;;;5051454;28;20239;-73
2022/08/07 05:42:35;;;;;;;4.05;1.10;;;18.90;99.90;;;;;;5057011;28;20220;-73
2022/08/07 05:45:29;;;;;;;4.00;1.10;;;18.80;99.90;;;;;;5057469;28;20232;-74
2022/08/07 05:48:39;;;;;;;3.00;1.17;;;18.70;99.90;;;;;;5026338;28;20282;-73
2022/08/07 05:51:50;;;;;;;4.72;1.38;;;18.90;99.90;;;;;;5030579;28;20217;-72
2022/08/07 05:54:42;;;;;;;3.25;1.20;;;19.00;99.90;;;;;;5031028;28;20301;-72
2022/08/07 05:57:47;;;;;;;2.80;1.25;;;19.10;99.90;;;;;;5019707;28;20232;-73
2022/08/07 06:00:39;;;;;;;2.47;1.15;;;19.00;99.90;;;;;;5015345;28;20276;-74
2022/08/07 06:03:36;;;;;;;3.88;1.10;;;19.10;99.90;;;;;;5012779;28;20225;-73
2022/08/07 06:06:45;;;;;;;5.03;1.30;;;19.90;99.90;;;;;;5019535;28;20225;-73
2022/08/07 06:09:44;;;;;;;2.35;1.05;;;21.50;99.90;;;;;;5017098;28;20221;-72
2022/08/07 06:12:55;;;;;;;4.15;1.30;;;23.60;99.90;;;;;;5029676;28;20363;-74
2022/08/07 06:15:48;;;;;;;3.95;1.00;;;25.10;97.90;;;;;;5014858;28;20311;-73
2022/08/07 06:18:43;;;;;;;4.18;1.27;;;25.90;92.20;;;;;;5030038;28;20221;-74
2022/08/07 06:21:46;;;;;;;1.95;1.00;;;24.70;90.90;;;;;;5021993;28;20228;-73
2022/08/07 06:24:57;;;;;;;3.63;1.10;;;22.50;93.60;;;;;;5023431;28;20318;-72
2022/08/07 06:27:49;;;;;;;5.53;1.10;;;20.90;99.90;;;;;;5025779;28;20304;-73
2022/08/07 06:30:51;;;;;;;5.00;1.50;;;20.50;99.90;;;;;;5016578;28;20240;-73
2022/08/07 06:33:42;;;;;;;5.00;1.60;;;20.00;99.90;;;;;;5030780;28;20221;-73
2022/08/07 06:36:34;;;;;;;6.53;1.40;;;20.10;99.90;;;;;;5017358;28;20224;-73
2022/08/07 06:39:26;;;;;;;3.97;1.50;;;20.00;99.90;;;;;;5017220;28;20225;-73
2022/08/07 06:42:37;;;;;;;4.70;1.30;;;20.30;99.90;;;;;;5029273;28;20232;-72
2022/08/07 06:45:33;;;;;;;5.65;1.60;;;21.70;99.90;;;;;;5015591;28;20908;-73
2022/08/07 06:48:26;;;;;;;5.35;1.52;;;22.10;99.90;;;;;;5030492;28;20315;-74
2022/08/07 06:51:20;;;;;;;4.68;1.52;;;21.50;99.90;;;;;;5059502;28;20255;-75
2022/08/07 06:54:26;;;;;;;3.55;1.35;;;21.00;99.90;;;;;;5059694;28;20271;-76
2022/08/07 06:57:37;;;;;;;4.03;1.40;;;21.00;99.90;;;;;;5058731;28;20701;-75
2022/08/07 07:00:42;;;;;;;5.78;1.40;;;20.60;99.90;;;;;;5043257;28;20245;-75
2022/08/07 07:03:34;;;;;;;3.53;1.00;;;20.40;99.90;;;;;;5055910;28;20754;-76
2022/08/07 07:06:35;;;;;;;3.10;1.20;;;20.50;99.90;;;;;;5058698;28;20224;-75
2022/08/07 07:09:46;;;;;;;2.92;1.30;;;20.40;99.90;;;;;;5044639;28;21410;-75
2022/08/07 07:12:43;;;;;;;4.95;1.15;;;20.50;99.90;;;;;;5045707;28;20220;-75
2022/08/07 07:15:45;;;;;;;4.25;1.52;;;20.50;99.90;;;;;;5057036;28;20709;-75
2022/08/07 07:18:44;;;;;;;3.55;1.10;;;20.50;99.90;;;;;;5065746;28;20711;-76
2022/08/07 07:21:38;;;;;;;2.85;1.10;;;20.70;99.90;;;;;;5062931;28;20263;-77
2022/08/07 07:24:51;;;;;;;2.65;1.00;;;20.90;99.90;;;;;;5061599;28;20220;-76
2022/08/07 07:27:56;;;;;;;2.67;1.05;;;21.20;99.90;;;;;;5048906;28;20244;-75
2022/08/07 07:31:06;;;;;;;1.42;0.90;;;21.00;99.90;;;;;;5062951;28;20353;-73
2022/08/07 07:34:06;;;;;;;1.90;1.00;;;21.00;99.80;;;;;;5047746;28;20239;-73
2022/08/07 07:36:56;;;;;;;5.13;1.33;;;21.50;99.90;;;;;;5060553;28;20231;-73
2022/08/07 07:40:07;;;;;;;3.88;1.40;;;21.90;99.70;;;;;;5059109;28;20219;-74
2022/08/07 07:43:05;;;;;;;3.42;1.08;;;22.20;98.40;;;;;;5060598;28;20220;-73
2022/08/07 07:46:07;;;;;;;4.38;1.13;;;21.70;99.90;;;;;;5060549;28;20227;-77
2022/08/07 07:49:20;;;;;;;3.25;1.60;;;22.20;97.60;;;;;;5064552;28;20595;-72
2022/08/07 07:52:29;;;;;;;2.50;1.00;;;22.60;98.70;;;;;;5044777;28;20704;-75
2022/08/07 07:55:20;;;;;;;3.50;0.93;;;23.00;94.30;;;;;;5060976;28;20226;-72
2022/08/07 07:58:11;;;;;;;2.78;1.05;;;23.20;93.60;;;;;;5059578;28;20262;-74
2022/08/07 08:01:01;;;;;;;1.40;0.90;;;23.60;93.20;;;;;;5064727;28;20223;-74
2022/08/07 08:04:11;;;;;;;1.50;1.02;;;24.00;89.90;;;;;;5066835;28;20211;-73
2022/08/07 08:07:02;;;;;;;2.78;1.05;;;24.10;87.40;;;;;;5067273;28;20223;-74
2022/08/07 08:09:55;;;;;;;4.15;1.20;;;24.20;84.40;;;;;;5064020;28;20225;-73
2022/08/07 08:12:54;;;;;;;1.60;1.00;;;24.50;80.50;;;;;;5049303;28;20223;-73
2022/08/07 08:15:48;;;;;;;3.45;1.10;;;24.30;78.20;;;;;;5064029;28;20219;-74
2022/08/07 08:18:59;;;;;;;1.88;0.98;;;24.50;78.10;;;;;;5062787;28;20219;-74
2022/08/07 08:28:40;;;;;;;2.10;1.10;;;25.50;75.00;;;;;;5053322;28;20291;-73
2022/08/07 08:31:36;;;;;;;1.35;0.90;;;25.30;70.40;;;;;;5060602;28;20261;-73
2022/08/07 08:34:54;;;;;;;3.03;1.00;;;25.30;70.50;;;;;;5047194;28;20725;-73
2022/08/07 08:37:47;;;;;;;2.60;1.10;;;25.20;71.20;;;;;;5059285;28;20306;-72
2022/08/07 08:40:56;;;;;;;2.78;1.15;;;25.60;69.40;;;;;;5062775;28;21116;-74
2022/08/07 08:43:54;;;;;;;1.60;0.93;;;25.30;67.00;;;;;;5067950;28;20247;-74
2022/08/07 08:47:06;;;;;;;2.13;0.90;;;25.60;66.80;;;;;;5065246;28;20227;-73
2022/08/07 08:50:08;;;;;;;1.75;1.00;;;25.70;65.10;;;;;;5067189;28;20235;-73
2022/08/07 08:53:06;;;;;;;2.95;1.38;;;26.20;64.90;;;;;;5061301;28;20212;-73
2022/08/07 08:55:57;;;;;;;1.40;0.82;;;26.20;64.30;;;;;;5062599;28;20220;-73
2022/08/07 08:59:02;;;;;;;3.13;1.08;;;26.80;63.20;;;;;;5066836;28;20259;-73
2022/08/07 09:02:09;;;;;;;2.25;1.13;;;27.10;64.10;;;;;;5067399;28;20299;-74
2022/08/07 09:05:10;;;;;;;2.30;1.13;;;26.60;60.50;;;;;;5057770;28;20221;-74
2022/08/07 09:08:18;;;;;;;2.90;1.23;;;27.10;61.80;;;;;;5064399;28;20216;-74
2022/08/07 09:11:19;;;;;;;2.63;1.25;;;27.80;62.20;;;;;;5060474;28;20468;-73
2022/08/07 09:14:33;;;;;;;2.58;1.35;;;27.90;62.00;;;;;;5060250;28;20412;-73
2022/08/07 09:17:37;;;;;;;2.10;1.27;;;28.40;63.10;;;;;;5056096;28;20630;-71
2022/08/07 09:20:54;;;;;;;1.40;0.93;;;28.40;61.00;;;;;;5059099;28;20269;-75
2022/08/07 09:23:59;;;;;;;3.55;0.90;;;27.80;57.20;;;;;;5057823;28;20243;-76
2022/08/07 09:27:23;;;;;;;4.38;1.05;;;27.90;56.10;;;;;;5061802;28;20223;-76
2022/08/07 09:30:17;;;;;;;1.52;0.90;;;27.10;55.60;;;;;;5060986;28;20231;-76
2022/08/07 09:33:28;;;;;;;2.40;1.00;;;28.20;57.10;;;;;;5061118;28;21406;-76
2022/08/07 09:36:44;;;;;;;1.70;1.10;;;28.80;57.70;;;;;;5057533;28;20228;-76
2022/08/07 09:39:48;;;;;;;2.35;0.90;;;28.90;58.60;;;;;;5058551;28;21021;-74
2022/08/07 09:42:54;;;;;;;2.33;1.10;;;28.80;56.80;;;;;;5059720;28;20219;-75
2022/08/07 09:45:50;;;;;;;2.47;1.20;;;29.00;55.30;;;;;;5057293;28;20716;-74
2022/08/07 09:49:11;;;;;;;3.15;1.30;;;29.30;57.30;;;;;;5060475;28;20227;-74
2022/08/07 09:52:23;;;;;;;3.42;1.23;;;30.20;56.80;;;;;;5043848;28;20539;-74
2022/08/07 09:55:31;;;;;;;1.38;0.98;;;31.40;55.60;;;;;;5060910;28;20219;-76
2022/08/07 09:59:05;;;;;;;1.70;1.20;;;30.20;52.30;;;;;;5046806;28;20634;-75
2022/08/07 10:02:25;;;;;;;4.40;1.30;;;28.20;55.60;;;;;;5046006;28;20708;-74
2022/08/07 10:05:42;;;;;;;2.00;1.13;;;26.90;59.20;;;;;;5042132;28;20220;-74
2022/08/07 10:09:16;;;;;;;2.30;1.20;;;28.70;58.60;;;;;;5046875;28;20278;-73
2022/08/07 10:12:49;;;;;;;1.88;1.00;;;29.50;54.60;;;;;;5055083;28;20702;-74
2022/08/07 10:15:56;;;;;;;3.33;1.30;;;30.40;53.90;;;;;;5055768;28;20232;-74
2022/08/07 10:19:09;;;;;;;2.05;1.10;;;31.30;50.40;;;;;;5059929;28;20556;-74
2022/08/07 10:22:21;;;;;;;2.10;0.90;;;31.60;51.70;;;;;;5055074;28;20263;-74
2022/08/07 10:25:33;;;;;;;1.98;1.10;;;32.20;52.10;;;;;;5050169;28;20224;-74
2022/08/07 10:28:54;;;;;;;2.75;1.10;;;32.40;49.60;;;;;;5058233;28;20228;-75
2022/08/07 10:31:57;;;;;;;1.98;0.95;;;30.40;52.80;;;;;;5057203;28;20217;-74
2022/08/07 10:34:58;;;;;;;5.10;1.08;;;31.00;53.10;;;;;;5056333;28;20596;-74
2022/08/07 10:38:02;;;;;;;1.15;1.02;;;33.40;49.90;;;;;;5060544;28;20241;-74
2022/08/07 10:41:18;;;;;;;1.95;1.05;;;34.50;49.00;;;;;;5041475;28;20264;-75
2022/08/07 10:44:43;;;;;;;3.28;1.30;;;35.00;46.90;;;;;;5036575;28;20347;-74
2022/08/07 10:47:44;;;;;;;1.75;1.00;;;35.20;45.90;;;;;;5061632;28;20227;-74
2022/08/07 10:50:46;;;;;;;5.35;1.30;;;34.90;44.50;;;;;;5060209;28;20215;-73
2022/08/07 10:53:45;;;;;;;1.45;1.00;;;35.40;44.10;;;;;;5060363;28;20289;-73
2022/08/07 10:56:46;;;;;;;1.75;1.20;;;35.20;45.80;;;;;;5059112;28;20268;-72
2022/08/07 10:59:51;;;;;;;2.15;1.23;;;36.40;44.60;;;;;;5060289;28;20215;-72
2022/08/07 11:02:46;;;;;;;1.58;1.10;;;35.80;43.20;;;;;;5062010;28;20726;-73
2022/08/07 11:05:44;;;;;;;2.92;0.93;;;32.20;44.70;;;;;;5052629;28;20226;-72
2022/08/07 11:08:43;;;;;;;1.90;1.02;;;33.90;44.90;;;;;;5060073;28;20709;-72
2022/08/07 11:11:39;;;;;;;1.48;0.88;;;33.70;44.60;;;;;;5060022;28;20364;-71
2022/08/07 11:14:35;;;;;;;1.92;1.15;;;34.50;44.60;;;;;;5056070;28;20696;-74
2022/08/07 11:17:49;;;;;;;3.97;1.08;;;35.60;43.10;;;;;;5058435;28;20227;-73
2022/08/07 11:20:48;;;;;;;1.52;0.98;;;37.10;43.20;;;;;;5056324;28;20223;-74
2022/08/07 11:23:47;;;;;;;1.20;1.00;;;36.70;41.20;;;;;;5044480;28;20741;-73
2022/08/07 11:26:44;;;;;;;3.08;1.08;;;37.00;41.40;;;;;;5060832;28;20231;-73
2022/08/07 11:29:43;;;;;;;2.33;1.00;;;36.80;40.00;;;;;;5061478;28;20655;-74
2022/08/07 11:32:43;;;;;;;1.65;0.98;;;36.40;38.70;;;;;;5058938;28;20227;-74
2022/08/07 11:35:45;;;;;;;2.85;0.82;;;36.40;39.50;;;;;;5059797;28;20224;-76
2022/08/07 11:38:57;;;;;;;0.77;0.75;;;37.50;38.80;;;;;;5058447;28;20271;-75
2022/08/07 11:41:54;;;;;;;3.17;2.88;;;39.30;40.20;;;;;;5062983;28;20212;-75
2022/08/07 11:44:55;;;;;;;6.85;1.15;;;39.80;38.40;;;;;;5044816;28;20223;-77
2022/08/07 11:47:57;;;;;;;1.67;0.90;;;39.80;37.20;;;;;;5058172;28;20215;-76
2022/08/07 11:51:08;;;;;;;2.17;0.80;;;40.50;36.20;;;;;;5041729;28;20727;-76
2022/08/07 11:54:33;;;;;;;1.08;0.70;;;38.90;34.40;;;;;;5042071;28;20215;-74
2022/08/07 11:57:31;;;;;;;1.38;0.63;;;37.80;35.80;;;;;;5058905;28;20220;-74
2022/08/07 12:00:52;;;;;;;0.98;0.70;;;38.20;35.80;;;;;;5061178;28;20219;-74
2022/08/07 12:04:06;;;;;;;1.30;0.70;;;38.50;34.80;;;;;;5046274;28;20856;-74
2022/08/07 12:07:03;;;;;;;1.73;0.90;;;40.10;34.40;;;;;;5052552;28;20219;-75
2022/08/07 12:10:15;;;;;;;1.38;0.80;;;40.20;35.20;;;;;;5063387;28;20223;-75
2022/08/07 12:13:11;;;;;;;2.55;0.80;;;40.60;34.10;;;;;;5067186;28;20216;-74
2022/08/07 12:16:13;;;;;;;0.73;0.60;;;42.20;35.50;;;;;;5056576;28;20219;-73
2022/08/07 12:19:26;;;;;;;0.80;0.80;;;42.60;33.60;;;;;;5056784;28;20730;-74
2022/08/07 12:22:36;;;;;;;1.17;0.90;;;42.50;33.40;;;;;;5065941;28;20280;-74
2022/08/07 12:25:53;;;;;;;2.70;0.80;;;42.70;32.80;;;;;;5052684;28;20221;-74
2022/08/07 12:29:08;;;;;;;2.97;0.90;;;42.50;32.50;;;;;;5046416;28;20215;-74
2022/08/07 12:32:03;;;;;;;0.85;0.55;;;40.70;33.90;;;;;;5054209;28;20296;-74
2022/08/07 12:34:56;;;;;;;1.20;0.80;;;39.40;33.30;;;;;;5052737;28;20220;-73
2022/08/07 12:37:50;;;;;;;2.25;0.77;;;38.40;34.30;;;;;;5047280;28;20301;-74
2022/08/07 12:41:03;;;;;;;1.85;0.70;;;33.90;36.50;;;;;;5062462;28;20306;-72
2022/08/07 12:43:59;;;;;;;2.15;1.00;;;31.50;39.50;;;;;;5046750;28;20225;-74
2022/08/07 12:47:09;;;;;;;0.90;0.70;;;29.60;41.70;;;;;;5063972;28;20620;-74
2022/08/07 12:50:04;;;;;;;1.25;0.80;;;29.10;43.10;;;;;;5023035;28;20235;-74
2022/08/07 12:53:20;;;;;;;1.48;0.85;;;28.70;46.60;;;;;;5032123;28;20236;-75
2022/08/07 12:56:19;;;;;;;1.38;0.80;;;27.00;47.40;;;;;;5020744;28;20235;-73
2022/08/07 12:59:11;;;;;;;2.75;1.15;;;26.60;48.20;;;;;;5021745;28;20725;-74
2022/08/07 13:02:27;;;;;;;2.00;0.90;;;27.10;50.40;;;;;;5027289;28;20388;-72
2022/08/07 13:05:38;;;;;;;1.90;0.90;;;27.00;50.20;;;;;;5038055;28;20245;-73
2022/08/07 13:08:59;;;;;;;2.72;0.90;;;26.20;50.40;;;;;;5023661;28;20209;-73
2022/08/07 13:11:57;;;;;;;1.98;1.00;;;26.00;51.10;;;;;;5024476;28;20590;-72
2022/08/07 13:15:01;;;;;;;2.40;0.90;;;26.20;52.30;;;;;;5020824;28;20224;-73
2022/08/07 13:17:57;;;;;;;2.15;1.00;;;25.50;53.40;;;;;;5035111;28;20233;-73
2022/08/07 13:20:52;;;;;;;1.88;0.80;;;25.10;53.00;;;;;;5025356;28;20221;-74
2022/08/07 13:23:52;;;;;;;1.95;1.00;;;24.80;54.20;;;;;;5028469;28;20312;-74
2022/08/07 13:27:00;;;;;;;1.83;0.82;;;24.20;55.40;;;;;;5022516;28;20352;-74
2022/08/07 13:29:59;;;;;;;1.95;0.90;;;24.20;55.60;;;;;;5016118;28;20796;-73
2022/08/07 13:32:56;;;;;;;1.02;0.75;;;24.60;55.50;;;;;;5027665;28;20238;-73
2022/08/07 13:35:50;;;;;;;1.30;1.10;;;24.90;55.60;;;;;;5022978;28;20240;-72
2022/08/07 13:39:02;;;;;;;4.20;1.38;;;25.00;56.40;;;;;;5025881;28;20225;-73
2022/08/07 13:42:00;;;;;;;2.53;1.00;;;25.00;56.50;;;;;;5018404;28;20308;-73
2022/08/07 13:44:51;;;;;;;3.22;1.20;;;24.90;56.50;;;;;;5020695;28;20264;-73
2022/08/07 13:48:03;;;;;;;2.45;0.85;;;24.50;56.80;;;;;;5028950;28;20232;-73
2022/08/07 13:50:59;;;;;;;3.03;1.05;;;24.50;57.50;;;;;;5062993;28;20783;-73
2022/08/07 13:53:53;;;;;;;2.13;1.02;;;24.30;57.30;;;;;;5065817;28;20293;-73
2022/08/07 13:56:54;;;;;;;1.77;0.95;;;24.20;57.40;;;;;;5057094;28;20281;-73
2022/08/07 13:59:54;;;;;;;0.93;0.75;;;24.70;57.90;;;;;;5047780;28;20221;-73
2022/08/07 14:02:47;;;;;;;1.48;0.88;;;24.70;57.60;;;;;;5065553;28;20224;-74
2022/08/07 14:05:45;;;;;;;1.13;0.90;;;24.80;57.70;;;;;;5062726;28;20711;-73
2022/08/07 14:08:43;;;;;;;3.00;1.02;;;24.40;58.40;;;;;;5063727;28;20224;-74
2022/08/07 14:11:36;;;;;;;1.73;1.17;;;24.00;58.70;;;;;;5044432;28;20596;-74
2022/08/07 14:14:51;;;;;;;3.78;1.00;;;24.20;59.30;;;;;;5063587;28;20264;-73
2022/08/07 14:17:43;;;;;;;1.65;0.95;;;23.90;58.40;;;;;;5053233;28;20227;-73
2022/08/07 14:20:58;;;;;;;2.33;0.90;;;23.90;58.10;;;;;;5060984;28;20227;-73
2022/08/07 14:24:00;;;;;;;2.03;1.10;;;23.70;59.50;;;;;;5066757;28;20346;-72
2022/08/07 14:26:54;;;;;;;2.30;1.00;;;23.80;60.10;;;;;;5061820;28;20307;-72
2022/08/07 14:29:52;;;;;;;2.58;0.93;;;23.90;60.30;;;;;;5064602;28;20220;-72
2022/08/07 14:33:01;;;;;;;2.45;0.90;;;23.90;59.90;;;;;;5062439;28;20224;-72
2022/08/07 14:35:55;;;;;;;1.60;1.00;;;23.80;59.20;;;;;;5055515;28;20227;-72
2022/08/07 14:38:48;;;;;;;1.75;0.90;;;23.90;60.00;;;;;;5054261;28;20299;-73
2022/08/07 14:41:38;;;;;;;1.00;0.90;;;24.20;61.40;;;;;;5059426;28;20228;-73
2022/08/07 14:44:52;;;;;;;1.65;0.98;;;24.20;62.20;;;;;;5049031;28;20216;-73
2022/08/07 14:47:49;;;;;;;2.22;1.00;;;24.10;61.10;;;;;;5054261;28;20230;-72
2022/08/07 14:50:44;;;;;;;1.95;0.90;;;24.10;59.50;;;;;;5059786;28;20336;-73
2022/08/07 14:53:39;;;;;;;3.00;1.05;;;24.30;59.90;;;;;;5047314;28;20228;-75
2022/08/07 14:56:50;;;;;;;1.95;1.00;;;24.20;59.70;;;;;;5048105;28;20208;-72
2022/08/07 14:59:42;;;;;;;4.10;1.30;;;24.10;62.40;;;;;;5063228;28;20230;-72
2022/08/07 15:02:54;;;;;;;2.03;0.93;;;24.10;63.10;;;;;;5064731;28;20250;-73
2022/08/07 15:06:03;;;;;;;2.28;0.98;;;24.40;63.20;;;;;;5061931;28;20222;-72
2022/08/07 15:08:52;;;;;;;1.05;0.77;;;24.20;61.50;;;;;;5062509;28;20232;-72
2022/08/07 15:11:50;;;;;;;4.30;1.20;;;24.20;60.50;;;;;;5063130;28;20220;-73
2022/08/07 15:14:53;;;;;;;2.70;1.00;;;24.30;61.60;;;;;;5047144;28;20324;-74
2022/08/07 15:17:45;;;;;;;1.83;1.08;;;24.20;62.50;;;;;;5046636;28;20212;-72
2022/08/07 15:20:58;;;;;;;2.08;0.98;;;23.90;61.90;;;;;;5046826;28;20230;-73
2022/08/07 15:24:00;;;;;;;1.73;0.98;;;23.90;61.70;;;;;;5062516;28;20639;-72
2022/08/07 15:27:12;;;;;;;1.20;0.80;;;23.50;60.90;;;;;;5062018;28;20216;-74
2022/08/07 15:30:09;;;;;;;1.67;0.80;;;23.30;61.30;;;;;;5067764;28;20236;-73
2022/08/07 15:33:05;;;;;;;1.98;0.90;;;23.40;62.50;;;;;;5049721;28;20227;-74
2022/08/07 15:36:12;;;;;;;1.77;1.20;;;23.30;62.60;;;;;;5060099;28;20350;-74
2022/08/07 15:39:24;;;;;;;3.80;1.33;;;23.20;62.90;;;;;;5058110;28;20228;-72
2022/08/07 15:42:39;;;;;;;3.35;1.00;;;23.40;62.90;;;;;;5061048;28;20227;-74
2022/08/07 15:45:41;;;;;;;1.35;0.90;;;23.30;63.00;;;;;;5059274;28;20698;-74
2022/08/07 15:48:48;;;;;;;1.60;1.00;;;23.20;62.90;;;;;;5046048;28;20236;-73
2022/08/07 15:51:58;;;;;;;3.63;1.23;;;23.40;64.50;;;;;;5051136;28;20815;-72